createdAt,value
2024-04-06T00:02:13.614Z,4.80
2024-04-06T00:04:43.783Z,10.60
2024-04-06T00:07:15.332Z,11.30
2024-04-06T00:09:45.650Z,11.10
2024-04-06T00:12:17.507Z,16.40
2024-04-06T00:14:48.051Z,12.60
2024-04-06T00:17:19.527Z,12.20
2024-04-06T00:19:49.710Z,9.50
2024-04-06T00:22:21.377Z,7.40
2024-04-06T00:24:51.494Z,5.20
2024-04-06T00:27:23.149Z,4.30
2024-04-06T00:29:53.264Z,4.90
2024-04-06T00:32:24.956Z,4.90
2024-04-06T00:34:54.931Z,4.50
2024-04-06T00:37:26.404Z,4.80
2024-04-06T00:39:56.601Z,4.10
2024-04-06T00:42:27.681Z,4.80
2024-04-06T00:44:57.664Z,4.10
2024-04-06T00:47:29.449Z,4.30
2024-04-06T00:49:59.648Z,3.40
2024-04-06T00:52:31.200Z,2.70
2024-04-06T00:55:01.740Z,5.00
2024-04-06T00:57:33.271Z,4.70
2024-04-06T01:00:03.293Z,4.40
2024-04-06T01:02:34.847Z,4.20
2024-04-06T01:05:05.882Z,3.80
2024-04-06T01:07:40.618Z,4.40
2024-04-06T01:10:16.257Z,3.20
2024-04-06T01:12:49.050Z,5.70
2024-04-06T01:15:19.368Z,4.40
2024-04-06T01:17:53.178Z,4.30
2024-04-06T01:20:23.622Z,4.00
2024-04-06T01:22:54.843Z,6.50
2024-04-06T01:25:25.271Z,4.20
2024-04-06T01:27:56.613Z,5.20
2024-04-06T01:30:27.046Z,14.90
2024-04-06T01:32:58.808Z,3.90
2024-04-06T01:35:29.066Z,4.90
2024-04-06T01:38:00.575Z,3.10
2024-04-06T01:40:30.657Z,5.30
2024-04-06T01:43:02.251Z,3.20
2024-04-06T01:45:32.567Z,4.30
2024-04-06T01:48:04.388Z,3.90
2024-04-06T01:50:34.655Z,4.10
2024-04-06T01:53:05.892Z,3.40
2024-04-06T01:55:36.320Z,4.80
2024-04-06T01:58:07.569Z,2.80
2024-04-06T02:00:38.197Z,4.40
2024-04-06T02:03:09.655Z,3.60
2024-04-06T02:05:39.971Z,3.90
2024-04-06T02:08:11.429Z,2.20
2024-04-06T02:10:41.539Z,4.70
2024-04-06T02:13:12.894Z,4.10
2024-04-06T02:15:43.225Z,4.20
2024-04-06T02:18:14.458Z,3.60
2024-04-06T02:20:44.788Z,2.70
2024-04-06T02:23:16.231Z,3.20
2024-04-06T02:25:46.863Z,3.30
2024-04-06T02:28:18.119Z,3.50
2024-04-06T02:30:48.334Z,3.60
2024-04-06T02:33:20.086Z,4.60
2024-04-06T02:35:50.204Z,4.20
2024-04-06T02:38:21.661Z,5.80
2024-04-06T02:40:51.984Z,2.90
2024-04-06T02:43:23.430Z,3.50
2024-04-06T02:45:54.372Z,2.10
2024-04-06T02:48:25.719Z,4.70
2024-04-06T02:50:56.167Z,2.40
2024-04-06T02:53:27.904Z,1.90
2024-04-06T02:55:58.337Z,4.20
2024-04-06T02:58:29.680Z,5.90
2024-04-06T03:01:00.210Z,3.00
2024-04-06T03:03:31.663Z,4.10
2024-04-06T03:06:02.084Z,1.90
2024-04-06T03:08:35.033Z,2.10
2024-04-06T03:11:05.395Z,1.70
2024-04-06T03:13:37.054Z,2.40
2024-04-06T03:16:07.883Z,4.30
2024-04-06T03:18:39.440Z,2.90
2024-04-06T03:21:09.761Z,2.00
2024-04-06T03:23:41.313Z,2.10
2024-04-06T03:26:11.433Z,4.90
2024-04-06T03:28:42.985Z,2.60
2024-04-06T03:31:13.205Z,2.80
2024-04-06T03:33:44.652Z,3.40
2024-04-06T03:36:15.192Z,6.10
2024-04-06T03:38:46.732Z,2.00
2024-04-06T03:41:16.971Z,4.20
2024-04-06T03:43:48.408Z,2.40
2024-04-06T03:46:18.636Z,1.60
2024-04-06T03:48:50.073Z,4.40
2024-04-06T03:51:20.302Z,2.20
2024-04-06T03:53:52.383Z,1.60
2024-04-06T03:56:22.663Z,3.10
2024-04-06T03:58:54.343Z,5.60
2024-04-06T04:01:25.175Z,3.00
2024-04-06T04:03:56.735Z,2.50
2024-04-06T04:06:28.005Z,3.10
2024-04-06T04:08:59.846Z,4.00
2024-04-06T04:11:29.968Z,4.30
2024-04-06T04:14:01.834Z,3.40
2024-04-06T04:16:32.042Z,2.40
2024-04-06T04:19:03.606Z,4.60
2024-04-06T04:21:33.714Z,2.50
2024-04-06T04:24:05.675Z,3.00
2024-04-06T04:26:35.937Z,2.40
2024-04-06T04:29:07.546Z,3.10
2024-04-06T04:31:37.668Z,4.30
2024-04-06T04:34:10.342Z,2.50
2024-04-06T04:36:41.519Z,4.70
2024-04-06T04:39:13.146Z,2.40
2024-04-06T04:41:44.499Z,2.60
2024-04-06T04:44:35.302Z,3.30
2024-04-06T04:47:08.593Z,3.10
2024-04-06T04:49:39.024Z,2.00
2024-04-06T04:52:10.777Z,5.20
2024-04-06T04:54:41.404Z,3.30
2024-04-06T04:57:12.865Z,2.50
2024-04-06T04:59:43.183Z,3.80
2024-04-06T05:02:16.064Z,2.50
2024-04-06T05:04:46.909Z,3.40
2024-04-06T05:07:22.552Z,3.80
2024-04-06T05:09:55.142Z,3.30
2024-04-06T05:12:25.451Z,4.70
2024-04-06T05:14:56.796Z,3.20
2024-04-06T05:17:27.652Z,3.80
2024-04-06T05:19:58.877Z,6.40
2024-04-06T05:22:29.223Z,6.30
2024-04-06T05:25:01.063Z,6.70
2024-04-06T05:27:31.278Z,7.20
2024-04-06T05:30:04.167Z,8.80
2024-04-06T05:32:34.223Z,7.10
2024-04-06T05:35:07.638Z,7.60
2024-04-06T05:37:38.124Z,8.10
2024-04-06T05:40:10.077Z,6.50
2024-04-06T05:42:40.089Z,5.20
2024-04-06T05:45:11.847Z,7.90
2024-04-06T05:47:41.975Z,5.10
2024-04-06T05:50:13.625Z,6.10
2024-04-06T05:52:43.890Z,8.60
2024-04-06T05:55:15.392Z,5.80
2024-04-06T05:57:45.512Z,5.20
2024-04-06T06:00:17.377Z,5.30
2024-04-06T06:02:47.597Z,4.00
2024-04-06T06:05:19.044Z,5.70
2024-04-06T06:07:49.366Z,5.70
2024-04-06T06:10:21.022Z,4.20
2024-04-06T06:12:51.239Z,5.60
2024-04-06T06:15:22.896Z,4.60
2024-04-06T06:17:53.428Z,4.70
2024-04-06T06:20:25.080Z,6.80
2024-04-06T06:22:55.103Z,5.80
2024-04-06T06:25:27.063Z,8.40
2024-04-06T06:27:57.384Z,4.30
2024-04-06T06:30:28.944Z,6.50
2024-04-06T06:32:59.263Z,11.30
2024-04-06T06:35:30.824Z,5.80
2024-04-06T06:38:01.194Z,5.70
2024-04-06T06:43:08.543Z,5.30
2024-04-06T06:45:39.275Z,4.70
2024-04-06T06:48:10.831Z,5.80
2024-04-06T06:50:41.280Z,6.20
2024-04-06T06:53:12.718Z,4.70
2024-04-06T06:55:43.135Z,3.20
2024-04-06T06:58:15.298Z,3.20
2024-04-06T07:00:48.855Z,3.70
2024-04-06T07:03:20.456Z,2.40
2024-04-06T07:05:50.773Z,5.00
2024-04-06T07:08:22.224Z,2.60
2024-04-06T07:10:52.639Z,3.00
2024-04-06T07:13:24.016Z,4.00
2024-04-06T07:16:10.968Z,2.10
2024-04-06T07:18:42.775Z,2.30
2024-04-06T07:21:14.897Z,2.30
2024-04-06T07:23:46.391Z,1.50
2024-04-06T07:26:16.514Z,2.50
2024-04-06T07:28:48.066Z,3.20
2024-04-06T07:31:18.295Z,2.80
2024-04-06T07:33:51.320Z,2.20
2024-04-06T07:36:21.605Z,4.10
2024-04-06T07:41:28.692Z,2.90
2024-04-06T07:43:58.914Z,2.70
2024-04-06T07:46:30.571Z,2.90
2024-04-06T07:49:00.813Z,3.40
2024-04-06T07:51:32.348Z,2.90
2024-04-06T07:54:02.573Z,4.60
2024-04-06T07:56:34.017Z,3.70
2024-04-06T07:59:04.453Z,2.70
2024-04-06T08:01:35.899Z,3.30
2024-04-06T08:04:06.600Z,3.60
2024-04-06T08:06:38.579Z,4.30
2024-04-06T08:09:10.164Z,4.30
2024-04-06T08:11:41.507Z,4.70
2024-04-06T08:14:20.759Z,3.90
2024-04-06T08:16:57.727Z,2.60
2024-04-06T08:19:28.046Z,3.10
2024-04-06T08:21:59.579Z,2.50
2024-04-06T08:24:30.019Z,2.60
2024-04-06T08:27:01.776Z,3.70
2024-04-06T08:29:32.097Z,3.50
2024-04-06T08:32:04.355Z,3.40
2024-04-06T08:34:34.896Z,3.70
2024-04-06T08:37:06.659Z,2.40
2024-04-06T08:39:36.766Z,3.30
2024-04-06T08:42:08.115Z,2.40
2024-04-06T08:44:47.546Z,2.40
2024-04-06T08:47:22.297Z,2.10
2024-04-06T08:49:54.652Z,5.70
2024-04-06T08:52:25.388Z,3.50
2024-04-06T08:54:56.832Z,3.20
2024-04-06T08:57:27.264Z,3.00
2024-04-06T08:59:59.320Z,2.70
2024-04-06T09:02:33.020Z,3.00
2024-04-06T09:05:05.095Z,2.80
2024-04-06T09:07:36.024Z,3.80
2024-04-06T09:12:37.694Z,3.80
2024-04-06T09:15:13.751Z,3.20
2024-04-06T09:17:45.615Z,3.60
2024-04-06T09:20:15.955Z,3.00
2024-04-06T09:22:47.702Z,3.50
2024-04-06T09:25:18.040Z,4.00
2024-04-06T09:27:49.474Z,3.70
2024-04-06T09:30:21.279Z,2.60
2024-04-06T09:32:52.798Z,2.90
2024-04-06T09:35:23.209Z,3.30
2024-04-06T09:37:55.175Z,2.90
2024-04-06T09:40:25.403Z,3.60
2024-04-06T09:42:57.357Z,2.50
2024-04-06T09:45:27.695Z,3.00
2024-04-06T09:47:59.245Z,11.50
2024-04-06T09:50:32.521Z,5.00
2024-04-06T09:53:05.215Z,3.80
2024-04-06T09:55:39.479Z,4.10
2024-04-06T09:58:10.793Z,2.70
2024-04-06T10:00:46.801Z,4.20
2024-04-06T10:03:22.354Z,2.20
2024-04-06T10:05:53.921Z,1.90
2024-04-06T10:08:26.326Z,2.80
2024-04-06T10:10:58.330Z,3.50
2024-04-06T10:13:28.587Z,4.70
2024-04-06T10:16:05.061Z,4.50
2024-04-06T10:18:39.584Z,4.10
2024-04-06T10:21:14.191Z,6.70
2024-04-06T10:23:47.738Z,2.80
2024-04-06T10:26:19.352Z,2.60
2024-04-06T10:28:49.868Z,4.30
2024-04-06T10:31:26.344Z,2.10
2024-04-06T10:34:05.592Z,2.30
2024-04-06T10:36:35.799Z,5.10
2024-04-06T10:41:43.830Z,3.10
2024-04-06T10:44:15.372Z,3.80
2024-04-06T10:46:45.410Z,2.80
2024-04-06T10:49:16.970Z,2.50
2024-04-06T10:51:46.976Z,2.80
2024-04-06T10:54:18.616Z,3.10
2024-04-06T10:56:48.934Z,3.80
2024-04-06T10:59:21.964Z,3.70
2024-04-06T11:01:52.140Z,3.40
2024-04-06T11:04:25.035Z,3.80
2024-04-06T11:06:55.149Z,3.70
2024-04-06T11:11:57.342Z,5.10
2024-04-06T11:14:28.891Z,4.00
2024-04-06T11:17:01.090Z,3.30
2024-04-06T11:19:32.511Z,3.60
2024-04-06T11:22:06.620Z,3.00
2024-04-06T11:24:39.122Z,3.00
2024-04-06T11:27:09.929Z,3.70
2024-04-06T11:29:44.649Z,2.30
2024-04-06T11:32:20.708Z,3.40
2024-04-06T11:34:53.923Z,3.20
2024-04-06T11:37:25.873Z,2.90
2024-04-06T11:39:57.530Z,2.70
2024-04-06T11:42:30.246Z,2.30
2024-04-06T11:45:04.686Z,2.60
2024-04-06T11:47:35.099Z,4.00
2024-04-06T11:50:07.143Z,2.60
2024-04-06T11:52:37.330Z,2.00
2024-04-06T11:55:09.610Z,2.40
2024-04-06T11:57:40.232Z,2.80
2024-04-06T12:00:12.914Z,3.30
2024-04-06T12:02:43.232Z,2.20
2024-04-06T12:05:14.990Z,2.40
2024-04-06T12:07:45.110Z,3.00
2024-04-06T12:10:16.883Z,3.00
2024-04-06T12:12:47.199Z,3.90
2024-04-06T12:15:20.148Z,2.90
2024-04-06T12:17:50.189Z,4.10
2024-04-06T12:20:22.363Z,2.90
2024-04-06T12:22:52.285Z,3.20
2024-04-06T12:25:24.054Z,2.90
2024-04-06T12:27:54.358Z,2.70
2024-04-06T12:30:25.846Z,2.50
2024-04-06T12:32:56.236Z,2.70
2024-04-06T12:35:27.797Z,1.90
2024-04-06T12:37:58.010Z,1.60
2024-04-06T12:40:29.451Z,2.70
2024-04-06T12:42:59.781Z,3.50
2024-04-06T12:45:31.436Z,3.10
2024-04-06T12:48:01.759Z,3.40
2024-04-06T12:50:33.414Z,2.90
2024-04-06T12:53:04.144Z,3.50
2024-04-06T12:55:35.809Z,4.50
2024-04-06T12:58:08.993Z,4.50
2024-04-06T13:00:40.858Z,3.50
2024-04-06T13:03:11.182Z,3.70
2024-04-06T13:05:43.030Z,2.50
2024-04-06T13:08:13.171Z,2.60
2024-04-06T13:10:45.785Z,3.30
2024-04-06T13:13:16.086Z,2.80
2024-04-06T13:18:19.265Z,3.30
2024-04-06T13:23:22.364Z,3.70
2024-04-06T13:28:25.423Z,3.90
2024-04-06T13:33:27.252Z,4.40
2024-04-06T13:35:59.071Z,4.30
2024-04-06T13:38:29.226Z,3.10
2024-04-06T13:41:00.893Z,2.60
2024-04-06T13:43:31.101Z,3.10
2024-04-06T13:46:02.657Z,4.30
2024-04-06T13:48:33.296Z,2.80
2024-04-06T13:51:04.837Z,3.70
2024-04-06T13:53:35.978Z,2.70
2024-04-06T13:56:07.646Z,2.50
2024-04-06T13:58:38.062Z,4.20
2024-04-06T14:01:09.512Z,3.70
2024-04-06T14:03:40.049Z,3.90
2024-04-06T14:06:11.797Z,3.00
2024-04-06T14:08:42.441Z,3.00
2024-04-06T14:11:13.774Z,2.90
2024-04-06T14:13:45.463Z,3.30
2024-04-06T14:18:49.257Z,2.80
2024-04-06T14:21:20.603Z,3.60
2024-04-06T14:23:51.444Z,7.90
2024-04-06T14:26:22.783Z,6.40
2024-04-06T14:28:53.225Z,5.40
2024-04-06T14:31:26.046Z,3.70
2024-04-06T14:33:56.419Z,5.20
2024-04-06T14:36:27.877Z,4.70
2024-04-06T14:38:58.397Z,3.80
2024-04-06T14:41:30.370Z,4.00
2024-04-06T14:44:00.693Z,4.10
2024-04-06T14:46:32.447Z,2.70
2024-04-06T14:49:02.772Z,2.60
2024-04-06T14:51:34.622Z,3.70
2024-04-06T14:54:05.493Z,3.00
2024-04-06T14:56:37.429Z,5.00
2024-04-06T14:59:08.425Z,2.80
2024-04-06T15:01:40.123Z,3.30
2024-04-06T15:04:10.545Z,3.70
2024-04-06T15:06:42.002Z,2.80
2024-04-06T15:09:12.425Z,3.40
2024-04-06T15:11:44.086Z,2.70
2024-04-06T15:14:14.809Z,3.60
2024-04-06T15:16:46.881Z,3.80
2024-04-06T15:19:17.105Z,4.10
2024-04-06T15:21:48.764Z,6.20
2024-04-06T15:24:18.974Z,4.00
2024-04-06T15:26:50.434Z,5.00
2024-04-06T15:29:21.462Z,3.60
2024-04-06T15:31:52.920Z,4.10
2024-04-06T15:34:23.185Z,4.80
2024-04-06T15:37:03.793Z,4.50
2024-04-06T15:39:36.072Z,3.50
2024-04-06T15:42:06.707Z,3.80
2024-04-06T15:44:38.258Z,3.90
2024-04-06T15:47:09.337Z,4.70
2024-04-06T15:49:40.650Z,4.10
2024-04-06T15:52:11.240Z,4.10
2024-04-06T15:54:42.526Z,4.50
2024-04-06T15:57:13.357Z,5.20
2024-04-06T15:59:44.611Z,4.60
2024-04-06T16:02:15.131Z,4.10
2024-04-06T16:04:46.471Z,5.10
2024-04-06T16:07:16.909Z,4.10
2024-04-06T16:09:48.260Z,4.50
2024-04-06T16:12:19.196Z,7.20
2024-04-06T16:14:50.542Z,6.00
2024-04-06T16:17:21.093Z,5.00
2024-04-06T16:19:53.451Z,3.80
2024-04-06T16:22:23.678Z,4.70
2024-04-06T16:24:55.006Z,5.10
2024-04-06T16:27:25.530Z,5.40
2024-04-06T16:29:56.992Z,5.30
2024-04-06T16:32:30.347Z,6.10
2024-04-06T16:35:01.950Z,11.10
2024-04-06T16:37:32.584Z,9.90
2024-04-06T16:40:05.653Z,8.70
2024-04-06T16:42:35.993Z,7.50
2024-04-06T16:45:07.946Z,6.50
2024-04-06T16:47:38.262Z,6.50
2024-04-06T16:50:10.346Z,7.00
2024-04-06T16:52:40.761Z,6.00
2024-04-06T16:55:12.217Z,6.40
2024-04-06T16:57:44.467Z,5.70
2024-04-06T17:00:16.341Z,8.00
2024-04-06T17:02:50.763Z,7.10
2024-04-06T17:05:23.234Z,6.40
2024-04-06T17:07:53.449Z,7.90
2024-04-06T17:10:24.911Z,7.30
2024-04-06T17:12:55.539Z,5.40
2024-04-06T17:15:27.500Z,4.90
2024-04-06T17:17:57.611Z,7.20
2024-04-06T17:20:29.176Z,5.90
2024-04-06T17:22:59.287Z,8.50
2024-04-06T17:25:31.872Z,7.50
2024-04-06T17:28:02.618Z,4.50
2024-04-06T17:33:04.578Z,8.30
2024-04-06T17:35:37.549Z,7.90
2024-04-06T17:38:09.627Z,6.30
2024-04-06T17:40:41.809Z,6.00
2024-04-06T17:43:12.320Z,7.80
2024-04-06T17:45:43.994Z,6.80
2024-04-06T17:48:14.111Z,7.80
2024-04-06T17:50:45.755Z,6.20
2024-04-06T17:53:15.883Z,8.60
2024-04-06T17:55:47.624Z,8.30
2024-04-06T17:58:18.050Z,7.20
2024-04-06T18:00:49.731Z,7.70
2024-04-06T18:03:21.870Z,5.60
2024-04-06T18:05:53.955Z,3.50
2024-04-06T18:08:24.266Z,5.20
2024-04-06T18:10:55.928Z,5.10
2024-04-06T18:13:27.080Z,7.20
2024-04-06T18:15:59.745Z,9.90
2024-04-06T18:18:29.864Z,5.70
2024-04-06T18:21:04.587Z,29.30
2024-04-06T18:23:37.877Z,24.80
2024-04-06T18:26:08.166Z,18.70
2024-04-06T18:28:39.962Z,7.00
2024-04-06T18:31:10.282Z,10.20
2024-04-06T18:33:42.246Z,16.40
2024-04-06T18:36:12.878Z,15.80
2024-04-06T18:38:44.531Z,10.70
2024-04-06T18:41:14.758Z,8.80
2024-04-06T18:43:47.128Z,8.50
2024-04-06T18:46:18.912Z,6.20
2024-04-06T18:48:50.440Z,6.00
2024-04-06T18:51:21.072Z,9.00
2024-04-06T18:53:53.140Z,9.20
2024-04-06T18:56:23.461Z,8.40
2024-04-06T18:58:54.810Z,6.10
2024-04-06T19:01:32.002Z,7.80
2024-04-06T19:04:07.048Z,9.90
2024-04-06T19:06:37.250Z,9.80
2024-04-06T19:09:08.604Z,10.20
2024-04-06T19:11:39.132Z,7.40
2024-04-06T19:14:10.681Z,7.60
2024-04-06T19:16:40.906Z,9.40
2024-04-06T19:19:12.248Z,14.90
2024-04-06T19:21:43.655Z,10.30
2024-04-06T19:24:15.263Z,8.20
2024-04-06T19:26:45.474Z,13.30
2024-04-06T19:29:17.345Z,19.50
2024-04-06T19:31:47.957Z,12.00
2024-04-06T19:34:20.747Z,9.20
2024-04-06T19:36:54.045Z,12.30
2024-04-06T19:39:27.045Z,8.60
2024-04-06T19:41:58.024Z,9.80
2024-04-06T19:44:31.162Z,11.00
2024-04-06T19:47:01.477Z,11.70
2024-04-06T19:49:33.039Z,10.10
2024-04-06T19:52:05.010Z,10.20
2024-04-06T19:54:36.753Z,7.30
2024-04-06T19:57:07.065Z,10.10
2024-04-06T19:59:38.530Z,8.20
2024-04-06T20:02:10.580Z,9.80
2024-04-06T20:04:42.053Z,8.80
2024-04-06T20:07:12.363Z,8.80
2024-04-06T20:09:43.813Z,7.40
2024-04-06T20:12:14.135Z,7.90
2024-04-06T20:14:45.486Z,7.40
2024-04-06T20:17:16.016Z,7.70
2024-04-06T20:19:47.263Z,7.10
2024-04-06T20:22:36.222Z,12.60
2024-04-06T20:25:26.824Z,9.80
2024-04-06T20:27:58.386Z,11.50
2024-04-06T20:30:28.588Z,10.20
2024-04-06T20:33:00.037Z,11.10
2024-04-06T20:35:30.150Z,10.60
2024-04-06T20:38:01.818Z,12.50
2024-04-06T20:40:32.057Z,10.00
2024-04-06T20:43:03.589Z,9.10
2024-04-06T20:45:33.720Z,10.70
2024-04-06T20:48:08.543Z,11.10
2024-04-06T20:50:41.757Z,18.40
2024-04-06T20:53:12.154Z,9.80
2024-04-06T20:55:44.349Z,9.00
2024-04-06T20:58:14.639Z,8.80
2024-04-06T21:00:47.748Z,11.60
2024-04-06T21:03:17.956Z,11.30
2024-04-06T21:05:49.511Z,10.40
2024-04-06T21:08:19.835Z,9.00
2024-04-06T21:10:51.709Z,10.00
2024-04-06T21:13:21.912Z,8.60
2024-04-06T21:15:53.275Z,13.90
2024-04-06T21:18:24.380Z,10.20
2024-04-06T21:20:55.856Z,10.40
2024-04-06T21:23:26.088Z,10.50
2024-04-06T21:26:01.611Z,9.90
2024-04-06T21:28:34.448Z,9.80
2024-04-06T21:31:04.726Z,11.00
2024-04-06T21:33:36.586Z,8.70
2024-04-06T21:36:07.504Z,9.80
2024-04-06T21:38:40.529Z,9.60
2024-04-06T21:41:10.532Z,9.40
2024-04-06T21:43:42.249Z,11.70
2024-04-06T21:46:12.309Z,8.80
2024-04-06T21:48:44.163Z,11.70
2024-04-06T21:51:14.278Z,9.40
2024-04-06T21:53:46.388Z,10.20
2024-04-06T21:56:16.469Z,9.70
2024-04-06T21:58:48.131Z,9.80
2024-04-06T22:01:18.238Z,10.40
2024-04-06T22:03:49.995Z,11.70
2024-04-06T22:06:20.028Z,11.70
2024-04-06T22:08:52.075Z,10.40
2024-04-06T22:11:22.096Z,9.10
2024-04-06T22:13:53.749Z,9.40
2024-04-06T22:16:23.764Z,10.80
2024-04-06T22:18:55.523Z,10.10
2024-04-06T22:21:26.160Z,9.50
2024-04-06T22:23:58.332Z,9.80
2024-04-06T22:26:28.965Z,11.80
2024-04-06T22:29:00.509Z,10.60
2024-04-06T22:31:30.721Z,11.90
2024-04-06T22:34:02.276Z,13.00
2024-04-06T22:36:32.499Z,14.70
2024-04-06T22:39:03.955Z,13.00
2024-04-06T22:41:34.285Z,13.80
2024-04-06T22:44:06.247Z,12.80
2024-04-06T22:46:36.377Z,11.40
2024-04-06T22:49:08.321Z,12.70
2024-04-06T22:51:38.544Z,12.50
2024-04-06T22:54:10.193Z,12.80
2024-04-06T22:56:40.997Z,13.50
2024-04-06T22:59:12.994Z,15.30
2024-04-06T23:01:43.351Z,17.40
2024-04-06T23:04:15.180Z,16.60
2024-04-06T23:06:45.401Z,20.30
2024-04-06T23:09:16.844Z,20.00
2024-04-06T23:11:47.480Z,18.60
2024-04-06T23:14:19.031Z,16.20
2024-04-06T23:16:54.064Z,16.40
2024-04-06T23:19:25.924Z,13.50
2024-04-06T23:21:57.171Z,14.50
2024-04-06T23:24:28.587Z,13.70
2024-04-06T23:26:59.145Z,11.00
2024-04-06T23:29:30.501Z,12.20
2024-04-06T23:32:01.940Z,14.20
2024-04-06T23:34:33.207Z,14.00
2024-04-06T23:37:04.295Z,14.70
2024-04-06T23:39:38.666Z,11.70
2024-04-06T23:42:13.997Z,13.50
2024-04-06T23:44:45.295Z,13.90
2024-04-06T23:47:16.688Z,12.40
2024-04-06T23:49:46.944Z,13.70
2024-04-06T23:52:18.470Z,11.10
2024-04-06T23:54:48.890Z,12.00
2024-04-06T23:57:20.448Z,13.50
2024-04-06T23:59:51.074Z,13.40
